createdAt,value
2022-09-17T00:00:48.124Z,100.00
2022-09-17T00:03:15.463Z,100.00
2022-09-17T00:05:43.604Z,100.00
2022-09-17T00:08:16.505Z,100.00
2022-09-17T00:10:44.658Z,100.00
2022-09-17T00:13:11.606Z,100.00
2022-09-17T00:15:42.657Z,100.00
2022-09-17T00:18:09.838Z,100.00
2022-09-17T00:20:44.510Z,100.00
2022-09-17T00:23:12.581Z,100.00
2022-09-17T00:25:43.168Z,100.00
2022-09-17T00:28:10.602Z,100.00
2022-09-17T00:30:39.818Z,100.00
2022-09-17T00:33:06.637Z,100.00
2022-09-17T00:35:33.876Z,100.00
2022-09-17T00:38:00.778Z,100.00
2022-09-17T00:40:27.803Z,100.00
2022-09-17T00:42:54.780Z,100.00
2022-09-17T00:45:22.712Z,100.00
2022-09-17T00:48:00.706Z,100.00
2022-09-17T00:50:27.507Z,100.00
2022-09-17T00:53:09.622Z,100.00
2022-09-17T00:55:37.844Z,100.00
2022-09-17T00:58:06.490Z,100.00
2022-09-17T01:00:37.031Z,100.00
2022-09-17T01:03:04.270Z,100.00
2022-09-17T01:05:35.120Z,100.00
2022-09-17T01:08:01.952Z,100.00
2022-09-17T01:10:43.873Z,100.00
2022-09-17T01:13:19.852Z,100.00
2022-09-17T01:15:55.198Z,100.00
2022-09-17T01:18:25.679Z,100.00
2022-09-17T01:20:52.451Z,100.00
2022-09-17T01:23:34.330Z,100.00
2022-09-17T01:26:19.737Z,100.00
2022-09-17T01:28:54.789Z,100.00
2022-09-17T01:31:31.299Z,100.00
2022-09-17T01:34:01.480Z,100.00
2022-09-17T01:36:47.223Z,100.00
2022-09-17T01:39:16.831Z,100.00
2022-09-17T01:41:50.446Z,100.00
2022-09-17T01:44:24.458Z,100.00
2022-09-17T01:46:57.044Z,100.00
2022-09-17T01:49:25.442Z,100.00
2022-09-17T01:51:54.669Z,100.00
2022-09-17T01:54:27.731Z,100.00
2022-09-17T01:57:18.332Z,100.00
2022-09-17T01:59:49.368Z,100.00
2022-09-17T02:02:24.288Z,100.00
2022-09-17T02:04:55.671Z,100.00
2022-09-17T02:07:23.374Z,100.00
2022-09-17T02:09:54.322Z,100.00
2022-09-17T02:12:24.330Z,100.00
2022-09-17T02:14:53.939Z,100.00
2022-09-17T02:17:43.931Z,100.00
2022-09-17T02:20:11.377Z,100.00
2022-09-17T02:22:52.834Z,100.00
2022-09-17T02:25:29.115Z,100.00
2022-09-17T02:28:08.567Z,100.00
2022-09-17T02:30:35.756Z,100.00
2022-09-17T02:33:04.507Z,100.00
2022-09-17T02:35:33.201Z,100.00
2022-09-17T02:38:00.569Z,100.00
2022-09-17T02:40:29.406Z,100.00
2022-09-17T02:42:56.222Z,100.00
2022-09-17T02:45:37.865Z,100.00
2022-09-17T02:48:13.603Z,100.00
2022-09-17T02:50:59.048Z,100.00
2022-09-17T02:53:39.830Z,100.00
2022-09-17T02:56:11.660Z,100.00
2022-09-17T02:58:53.629Z,100.00
2022-09-17T03:01:46.600Z,100.00
2022-09-17T03:04:15.894Z,100.00
2022-09-17T03:06:45.298Z,100.00
2022-09-17T03:09:12.121Z,100.00
2022-09-17T03:11:38.994Z,100.00
2022-09-17T03:14:06.137Z,100.00
2022-09-17T03:16:33.121Z,100.00
2022-09-17T03:19:00.110Z,100.00
2022-09-17T03:21:26.953Z,100.00
2022-09-17T03:23:53.772Z,100.00
2022-09-17T03:26:20.576Z,100.00
2022-09-17T03:28:47.482Z,100.00
2022-09-17T03:31:14.322Z,100.00
2022-09-17T03:33:41.149Z,100.00
2022-09-17T03:36:08.013Z,100.00
2022-09-17T03:38:34.973Z,100.00
2022-09-17T03:41:02.796Z,100.00
2022-09-17T03:43:29.646Z,100.00
2022-09-17T03:45:56.479Z,100.00
2022-09-17T03:48:23.323Z,100.00
2022-09-17T03:50:50.315Z,100.00
2022-09-17T03:53:17.572Z,100.00
2022-09-17T03:55:44.489Z,100.00
2022-09-17T03:58:11.485Z,100.00
2022-09-17T04:00:38.304Z,100.00
2022-09-17T04:03:05.466Z,100.00
2022-09-17T04:05:32.374Z,100.00
2022-09-17T04:07:59.216Z,100.00
2022-09-17T04:10:26.022Z,100.00
2022-09-17T04:12:52.855Z,100.00
2022-09-17T04:15:19.715Z,100.00
2022-09-17T04:17:46.549Z,100.00
2022-09-17T04:20:13.356Z,100.00
2022-09-17T04:22:40.194Z,100.00
2022-09-17T04:25:07.221Z,100.00
2022-09-17T04:27:34.114Z,100.00
2022-09-17T04:30:01.672Z,100.00
2022-09-17T04:32:28.530Z,100.00
2022-09-17T04:34:55.356Z,100.00
2022-09-17T04:37:22.895Z,100.00
2022-09-17T04:39:49.744Z,100.00
2022-09-17T04:42:16.582Z,100.00
2022-09-17T04:44:43.630Z,100.00
2022-09-17T04:47:10.464Z,100.00
2022-09-17T04:49:37.285Z,100.00
2022-09-17T04:52:04.173Z,100.00
2022-09-17T04:54:30.989Z,100.00
2022-09-17T04:56:58.007Z,100.00
2022-09-17T04:59:24.862Z,100.00
2022-09-17T05:01:51.774Z,100.00
2022-09-17T05:04:18.702Z,100.00
2022-09-17T05:06:45.542Z,100.00
2022-09-17T05:09:12.420Z,100.00
2022-09-17T05:11:39.292Z,100.00
2022-09-17T05:14:06.258Z,100.00
2022-09-17T05:16:33.169Z,100.00
2022-09-17T05:19:00.072Z,100.00
2022-09-17T05:21:26.997Z,100.00
2022-09-17T05:23:53.810Z,100.00
2022-09-17T05:26:20.610Z,100.00
2022-09-17T05:28:47.431Z,100.00
2022-09-17T05:31:14.323Z,100.00
2022-09-17T05:33:41.223Z,100.00
2022-09-17T05:36:08.165Z,100.00
2022-09-17T05:38:35.024Z,100.00
2022-09-17T05:41:06.370Z,100.00
2022-09-17T05:43:33.471Z,100.00
2022-09-17T05:46:04.526Z,100.00
2022-09-17T05:48:31.842Z,100.00
2022-09-17T05:50:58.680Z,100.00
2022-09-17T05:53:25.513Z,100.00
2022-09-17T05:55:56.794Z,100.00
2022-09-17T05:58:23.686Z,100.00
2022-09-17T06:00:50.624Z,100.00
2022-09-17T06:03:19.196Z,100.00
2022-09-17T06:06:00.710Z,100.00
2022-09-17T06:08:28.372Z,100.00
2022-09-17T06:10:58.981Z,100.00
2022-09-17T06:13:28.833Z,100.00
2022-09-17T06:15:55.763Z,100.00
2022-09-17T06:18:22.706Z,100.00
2022-09-17T06:20:56.407Z,100.00
2022-09-17T06:23:24.223Z,100.00
2022-09-17T06:26:01.050Z,100.00
2022-09-17T06:28:28.280Z,100.00
2022-09-17T06:30:57.110Z,100.00
2022-09-17T06:33:24.033Z,100.00
2022-09-17T06:35:56.701Z,100.00
2022-09-17T06:38:23.515Z,100.00
2022-09-17T06:40:50.907Z,100.00
2022-09-17T06:43:18.005Z,100.00
2022-09-17T06:45:44.895Z,100.00
2022-09-17T06:48:11.771Z,100.00
2022-09-17T06:50:42.658Z,100.00
2022-09-17T06:53:09.838Z,100.00
2022-09-17T06:55:36.768Z,100.00
2022-09-17T06:58:03.714Z,100.00
2022-09-17T07:00:31.380Z,100.00
2022-09-17T07:02:58.885Z,100.00
2022-09-17T07:05:25.998Z,100.00
2022-09-17T07:07:53.133Z,100.00
2022-09-17T07:10:20.692Z,100.00
2022-09-17T07:12:49.961Z,100.00
2022-09-17T07:15:17.075Z,100.00
2022-09-17T07:17:44.478Z,100.00
2022-09-17T07:20:11.447Z,99.17
2022-09-17T07:22:38.554Z,98.27
2022-09-17T07:25:06.089Z,96.39
2022-09-17T07:27:33.193Z,97.42
2022-09-17T07:29:59.987Z,96.30
2022-09-17T07:32:28.727Z,98.24
2022-09-17T07:34:55.528Z,95.95
2022-09-17T07:37:22.360Z,95.12
2022-09-17T07:39:49.239Z,95.54
2022-09-17T07:42:16.170Z,93.93
2022-09-17T07:44:43.083Z,93.18
2022-09-17T07:47:09.982Z,90.35
2022-09-17T07:49:36.806Z,87.73
2022-09-17T07:52:06.623Z,89.35
2022-09-17T07:54:33.925Z,86.79
2022-09-17T07:57:01.231Z,86.78
2022-09-17T07:59:28.033Z,86.75
2022-09-17T08:01:54.949Z,88.65
2022-09-17T08:04:22.190Z,87.64
2022-09-17T08:06:49.137Z,86.66
2022-09-17T08:09:16.922Z,89.21
2022-09-17T08:11:55.506Z,88.75
2022-09-17T08:14:27.123Z,90.55
2022-09-17T08:16:56.514Z,94.55
2022-09-17T08:19:23.310Z,97.74
2022-09-17T08:21:50.189Z,94.56
2022-09-17T08:24:17.153Z,93.70
2022-09-17T08:26:44.245Z,94.46
2022-09-17T08:29:11.273Z,96.70
2022-09-17T08:31:38.251Z,98.83
2022-09-17T08:34:11.679Z,99.61
2022-09-17T08:36:38.838Z,100.00
2022-09-17T08:39:05.790Z,100.00
2022-09-17T08:41:41.618Z,100.00
2022-09-17T08:44:27.413Z,100.00
2022-09-17T08:46:59.554Z,98.07
2022-09-17T08:49:32.399Z,96.36
2022-09-17T08:52:02.401Z,95.72
2022-09-17T08:54:35.306Z,95.60
2022-09-17T08:57:11.708Z,93.48
2022-09-17T08:59:49.222Z,93.43
2022-09-17T09:02:24.432Z,90.64
2022-09-17T09:04:57.412Z,87.08
2022-09-17T09:07:27.039Z,85.66
2022-09-17T09:10:04.666Z,87.82
2022-09-17T09:12:33.932Z,87.50
2022-09-17T09:15:06.156Z,90.41
2022-09-17T09:17:41.610Z,83.63
2022-09-17T09:20:34.731Z,86.77
2022-09-17T09:23:15.365Z,83.85
2022-09-17T09:25:47.011Z,81.26
2022-09-17T09:28:25.796Z,81.37
2022-09-17T09:31:00.230Z,84.46
2022-09-17T09:33:30.989Z,82.47
2022-09-17T09:35:58.882Z,81.12
2022-09-17T09:38:41.566Z,82.23
2022-09-17T09:41:12.905Z,85.84
2022-09-17T09:44:02.880Z,87.58
2022-09-17T09:46:29.607Z,87.80
2022-09-17T09:49:08.886Z,84.29
2022-09-17T09:51:35.729Z,81.33
2022-09-17T09:54:21.494Z,80.04
2022-09-17T09:56:59.593Z,77.84
2022-09-17T09:59:26.789Z,76.98
2022-09-17T10:01:53.820Z,84.49
2022-09-17T10:04:22.394Z,80.96
2022-09-17T10:06:51.027Z,86.80
2022-09-17T10:09:21.417Z,85.37
2022-09-17T10:12:06.849Z,81.29
2022-09-17T10:14:35.581Z,78.87
2022-09-17T10:17:16.381Z,76.33
2022-09-17T10:19:47.271Z,79.57
2022-09-17T10:22:19.150Z,78.04
2022-09-17T10:24:46.333Z,74.14
2022-09-17T10:27:15.993Z,76.00
2022-09-17T10:29:50.983Z,72.00
2022-09-17T10:32:18.943Z,71.37
2022-09-17T10:35:22.006Z,70.63
2022-09-17T10:37:49.742Z,65.60
2022-09-17T10:40:19.506Z,65.78
2022-09-17T10:42:47.337Z,65.19
2022-09-17T10:45:25.256Z,64.70
2022-09-17T10:47:52.507Z,67.74
2022-09-17T10:50:21.239Z,66.60
2022-09-17T10:52:49.639Z,64.41
2022-09-17T10:55:16.732Z,62.80
2022-09-17T10:58:03.003Z,64.37
2022-09-17T11:00:34.017Z,65.42
2022-09-17T11:03:17.101Z,69.59
2022-09-17T11:05:53.777Z,70.82
2022-09-17T11:08:34.076Z,70.12
2022-09-17T11:11:04.076Z,67.45
2022-09-17T11:13:39.813Z,65.13
2022-09-17T11:16:30.091Z,69.25
2022-09-17T11:19:02.991Z,62.35
2022-09-17T11:21:45.322Z,67.80
2022-09-17T11:24:46.562Z,67.75
2022-09-17T11:27:16.638Z,70.32
2022-09-17T11:30:04.052Z,72.55
2022-09-17T11:32:49.625Z,71.36
2022-09-17T11:35:19.348Z,72.55
2022-09-17T11:37:50.161Z,71.21
2022-09-17T11:40:32.152Z,69.02
2022-09-17T11:43:02.140Z,68.89
2022-09-17T11:45:33.241Z,68.37
2022-09-17T11:48:03.834Z,74.67
2022-09-17T11:50:37.902Z,78.67
2022-09-17T11:53:10.554Z,83.53
2022-09-17T11:55:44.947Z,79.81
2022-09-17T11:58:15.784Z,83.58
2022-09-17T12:00:52.338Z,79.97
2022-09-17T12:03:24.769Z,78.77
2022-09-17T12:05:54.375Z,77.54
2022-09-17T12:08:27.892Z,79.86
2022-09-17T12:11:13.442Z,75.74
2022-09-17T12:13:45.836Z,76.61
2022-09-17T12:16:19.144Z,73.05
2022-09-17T12:19:01.217Z,71.47
2022-09-17T12:21:39.208Z,73.81
2022-09-17T12:24:26.071Z,74.30
2022-09-17T12:27:31.685Z,75.37
2022-09-17T12:30:06.544Z,79.00
2022-09-17T12:32:33.332Z,83.23
2022-09-17T12:35:23.130Z,81.49
2022-09-17T12:37:52.718Z,85.19
2022-09-17T12:40:38.743Z,82.43
2022-09-17T12:43:06.034Z,83.14
2022-09-17T12:45:50.594Z,80.76
2022-09-17T12:48:27.030Z,79.84
2022-09-17T12:50:59.790Z,81.63
2022-09-17T12:53:37.052Z,84.55
2022-09-17T12:56:22.328Z,82.71
2022-09-17T12:59:03.653Z,83.55
2022-09-17T13:01:31.263Z,85.55
2022-09-17T13:04:11.521Z,86.67
2022-09-17T13:06:42.001Z,81.31
2022-09-17T13:09:27.530Z,83.31
2022-09-17T13:12:20.661Z,81.40
2022-09-17T13:14:47.463Z,84.88
2022-09-17T13:17:20.694Z,83.93
2022-09-17T13:19:52.800Z,79.78
2022-09-17T13:22:21.319Z,80.80
2022-09-17T13:25:00.882Z,80.53
2022-09-17T13:27:27.866Z,79.29
2022-09-17T13:29:54.654Z,79.12
2022-09-17T13:32:34.568Z,78.03
2022-09-17T13:35:13.587Z,78.45
2022-09-17T13:37:52.805Z,81.56
2022-09-17T13:40:27.679Z,81.10
2022-09-17T13:42:56.068Z,83.64
2022-09-17T13:45:23.747Z,83.79
2022-09-17T13:48:10.808Z,83.30
2022-09-17T13:50:38.696Z,82.52
2022-09-17T13:53:17.146Z,81.90
2022-09-17T13:55:45.881Z,84.09
2022-09-17T13:58:18.939Z,84.18
2022-09-17T14:00:51.743Z,81.39
2022-09-17T14:03:31.223Z,82.54
2022-09-17T14:06:18.803Z,78.49
2022-09-17T14:08:46.611Z,78.89
2022-09-17T14:11:22.674Z,79.52
2022-09-17T14:13:55.493Z,77.75
2022-09-17T14:16:37.163Z,78.32
2022-09-17T14:19:17.439Z,77.96
2022-09-17T14:21:46.312Z,76.46
2022-09-17T14:24:21.762Z,76.84
2022-09-17T14:27:07.566Z,78.28
2022-09-17T14:29:43.583Z,78.50
2022-09-17T14:32:15.767Z,77.80
2022-09-17T14:34:42.942Z,78.81
2022-09-17T14:37:13.478Z,78.44
2022-09-17T14:39:40.494Z,78.71
2022-09-17T14:42:12.658Z,77.82
2022-09-17T14:44:47.058Z,76.18
2022-09-17T14:47:17.387Z,77.53
2022-09-17T14:49:44.199Z,75.33
2022-09-17T14:52:25.195Z,75.91
2022-09-17T14:55:10.619Z,74.13
2022-09-17T14:57:37.547Z,76.30
2022-09-17T15:00:10.787Z,74.32
2022-09-17T15:02:38.039Z,74.53
2022-09-17T15:05:23.062Z,74.96
2022-09-17T15:07:49.919Z,74.99
2022-09-17T15:10:18.811Z,76.59
2022-09-17T15:12:46.361Z,78.72
2022-09-17T15:15:18.334Z,78.75
2022-09-17T15:17:45.804Z,78.73
2022-09-17T15:20:16.555Z,83.66
2022-09-17T15:22:45.587Z,89.05
2022-09-17T15:25:17.889Z,90.08
2022-09-17T15:27:45.599Z,89.17
2022-09-17T15:30:23.025Z,92.12
2022-09-17T15:32:50.868Z,93.55
2022-09-17T15:35:19.523Z,97.28
2022-09-17T15:40:42.675Z,99.83
2022-09-17T15:43:12.685Z,100.00
2022-09-17T15:45:42.169Z,100.00
2022-09-17T15:48:24.401Z,100.00
2022-09-17T15:50:53.017Z,91.84
2022-09-17T15:53:32.970Z,93.39
2022-09-17T15:56:02.868Z,92.79
2022-09-17T15:58:35.607Z,91.67
2022-09-17T16:01:14.975Z,89.32
2022-09-17T16:03:41.966Z,84.11
2022-09-17T16:06:29.028Z,78.47
2022-09-17T16:08:56.926Z,79.67
2022-09-17T16:11:25.176Z,75.28
2022-09-17T16:13:53.375Z,80.00
2022-09-17T16:16:21.691Z,81.96
2022-09-17T16:18:49.212Z,85.84
2022-09-17T16:21:17.129Z,82.41
2022-09-17T16:23:43.994Z,75.03
2022-09-17T16:26:14.200Z,73.70
2022-09-17T16:28:41.226Z,71.55
2022-09-17T16:31:09.671Z,75.99
2022-09-17T16:33:36.555Z,77.75
2022-09-17T16:36:04.517Z,79.87
2022-09-17T16:38:31.366Z,83.80
2022-09-17T16:40:58.152Z,88.29
2022-09-17T16:43:25.098Z,88.79
2022-09-17T16:46:01.904Z,92.24
2022-09-17T16:48:28.770Z,93.35
2022-09-17T16:50:55.568Z,96.48
2022-09-17T16:53:22.521Z,97.66
2022-09-17T16:55:49.374Z,99.22
2022-09-17T16:58:16.216Z,97.83
2022-09-17T17:00:43.443Z,97.80
2022-09-17T17:03:15.038Z,98.28
2022-09-17T17:05:43.336Z,97.25
2022-09-17T17:08:10.455Z,98.76
2022-09-17T17:10:38.491Z,99.10
2022-09-17T17:13:05.754Z,100.00
2022-09-17T17:15:32.555Z,100.00
2022-09-17T17:17:59.445Z,99.51
2022-09-17T17:20:26.301Z,100.00
2022-09-17T17:22:53.138Z,100.00
2022-09-17T17:25:19.968Z,100.00
2022-09-17T17:27:46.887Z,100.00
2022-09-17T17:30:17.148Z,100.00
2022-09-17T17:32:44.922Z,100.00
2022-09-17T17:35:12.144Z,100.00
2022-09-17T17:37:39.143Z,100.00
2022-09-17T17:40:09.237Z,100.00
2022-09-17T17:42:38.761Z,100.00
2022-09-17T17:45:06.949Z,100.00
2022-09-17T17:47:34.047Z,100.00
2022-09-17T17:50:00.960Z,100.00
2022-09-17T17:52:28.244Z,100.00
2022-09-17T17:54:55.144Z,100.00
2022-09-17T17:57:22.025Z,100.00
2022-09-17T17:59:48.975Z,100.00
2022-09-17T18:02:15.982Z,100.00
2022-09-17T18:04:42.900Z,100.00
2022-09-17T18:07:09.752Z,100.00
2022-09-17T18:09:36.647Z,100.00
2022-09-17T18:12:03.537Z,100.00
2022-09-17T18:14:30.354Z,98.98
2022-09-17T18:16:57.180Z,99.21
2022-09-17T18:19:23.977Z,98.70
2022-09-17T18:21:50.909Z,98.90
2022-09-17T18:24:17.908Z,99.91
2022-09-17T18:26:47.357Z,98.30
2022-09-17T18:29:15.454Z,98.28
2022-09-17T18:31:43.810Z,97.61
2022-09-17T18:34:12.128Z,98.32
2022-09-17T18:36:39.732Z,96.51
2022-09-17T18:39:44.636Z,96.76
2022-09-17T18:41:54.748Z,95.02
2022-09-17T18:44:22.317Z,97.90
2022-09-17T18:46:51.009Z,96.93
2022-09-17T18:49:18.074Z,98.46
2022-09-17T18:51:45.232Z,99.48
2022-09-17T18:54:12.931Z,99.58
2022-09-17T18:56:41.607Z,99.20
2022-09-17T18:59:09.072Z,99.66
2022-09-17T19:01:36.578Z,97.16
2022-09-17T19:04:04.209Z,96.65
2022-09-17T19:06:34.231Z,97.20
2022-09-17T19:09:01.606Z,97.72
2022-09-17T19:11:28.648Z,98.17
2022-09-17T19:13:55.533Z,99.75
2022-09-17T19:16:22.502Z,100.00
2022-09-17T19:18:49.546Z,99.22
2022-09-17T19:21:17.994Z,100.00
2022-09-17T19:23:46.753Z,100.00
2022-09-17T19:26:18.372Z,98.11
2022-09-17T19:28:45.433Z,99.35
2022-09-17T19:31:13.839Z,99.60
2022-09-17T19:33:41.157Z,100.00
2022-09-17T19:36:10.233Z,96.44
2022-09-17T19:38:37.486Z,98.88
2022-09-17T19:41:06.648Z,99.45
2022-09-17T19:43:34.074Z,97.86
2022-09-17T19:46:05.103Z,98.59
2022-09-17T19:48:32.719Z,99.61
2022-09-17T19:50:59.609Z,98.37
2022-09-17T19:53:26.587Z,97.56
2022-09-17T19:55:53.449Z,98.20
2022-09-17T19:58:20.468Z,99.23
2022-09-17T20:00:53.917Z,98.48
2022-09-17T20:03:20.721Z,99.12
2022-09-17T20:05:47.674Z,100.00
2022-09-17T20:08:14.713Z,100.00
2022-09-17T20:10:41.577Z,100.00
2022-09-17T20:13:08.408Z,100.00
2022-09-17T20:15:36.000Z,100.00
2022-09-17T20:18:03.157Z,100.00
2022-09-17T20:20:30.031Z,100.00
2022-09-17T20:22:56.982Z,100.00
2022-09-17T20:25:25.715Z,100.00
2022-09-17T20:27:52.900Z,100.00
2022-09-17T20:30:19.870Z,100.00
2022-09-17T20:32:47.784Z,100.00
2022-09-17T20:35:14.742Z,100.00
2022-09-17T20:38:44.522Z,100.00
2022-09-17T20:40:30.968Z,100.00
2022-09-17T20:42:58.032Z,99.26
2022-09-17T20:45:24.986Z,98.91
2022-09-17T20:47:51.994Z,100.00
2022-09-17T20:50:19.075Z,99.87
2022-09-17T20:52:46.028Z,98.63
2022-09-17T20:55:12.853Z,99.18
2022-09-17T20:57:40.115Z,98.87
2022-09-17T21:00:17.913Z,98.49
2022-09-17T21:02:50.610Z,100.00
2022-09-17T21:05:18.471Z,97.99
2022-09-17T21:07:45.658Z,98.97
2022-09-17T21:10:13.457Z,100.00
2022-09-17T21:12:40.570Z,100.00
2022-09-17T21:15:07.673Z,100.00
2022-09-17T21:17:34.729Z,100.00
2022-09-17T21:20:02.041Z,100.00
2022-09-17T21:22:29.093Z,100.00
2022-09-17T21:24:56.187Z,100.00
2022-09-17T21:27:23.445Z,100.00
2022-09-17T21:29:50.428Z,100.00
2022-09-17T21:32:17.335Z,100.00
2022-09-17T21:34:44.226Z,100.00
2022-09-17T21:37:11.132Z,100.00
2022-09-17T21:39:38.200Z,100.00
2022-09-17T21:42:05.106Z,100.00
2022-09-17T21:44:31.953Z,100.00
2022-09-17T21:46:58.927Z,100.00
2022-09-17T21:49:25.848Z,100.00
2022-09-17T21:51:52.710Z,100.00
2022-09-17T21:54:19.574Z,100.00
2022-09-17T21:56:46.511Z,100.00
2022-09-17T21:59:14.273Z,100.00
2022-09-17T22:01:43.684Z,100.00
2022-09-17T22:04:15.203Z,100.00
2022-09-17T22:06:42.925Z,100.00
2022-09-17T22:09:14.604Z,100.00
2022-09-17T22:11:41.399Z,100.00
2022-09-17T22:14:12.673Z,100.00
2022-09-17T22:16:40.818Z,100.00
2022-09-17T22:19:08.710Z,100.00
2022-09-17T22:21:37.518Z,100.00
2022-09-17T22:24:05.459Z,100.00
2022-09-17T22:26:35.810Z,100.00
2022-09-17T22:29:07.441Z,100.00
2022-09-17T22:31:34.355Z,100.00
2022-09-17T22:34:01.283Z,100.00
2022-09-17T22:36:28.496Z,100.00
2022-09-17T22:38:57.351Z,100.00
2022-09-17T22:41:25.613Z,100.00
2022-09-17T22:43:56.893Z,100.00
2022-09-17T22:46:25.506Z,100.00
2022-09-17T22:48:52.481Z,100.00
2022-09-17T22:51:19.546Z,100.00
2022-09-17T22:53:46.474Z,100.00
2022-09-17T22:56:14.590Z,100.00
2022-09-17T22:58:41.886Z,100.00
2022-09-17T23:01:16.091Z,100.00
2022-09-17T23:03:43.843Z,100.00
2022-09-17T23:06:11.854Z,100.00
2022-09-17T23:08:38.998Z,100.00
2022-09-17T23:11:07.146Z,100.00
2022-09-17T23:13:34.811Z,100.00
2022-09-17T23:16:02.461Z,100.00
2022-09-17T23:18:29.330Z,100.00
2022-09-17T23:20:57.209Z,100.00
2022-09-17T23:23:24.720Z,100.00
2022-09-17T23:25:51.618Z,100.00
2022-09-17T23:28:18.418Z,100.00
2022-09-17T23:30:45.276Z,100.00
2022-09-17T23:33:13.577Z,100.00
2022-09-17T23:35:40.886Z,100.00
2022-09-17T23:38:07.783Z,100.00
2022-09-17T23:40:34.638Z,100.00
2022-09-17T23:43:01.509Z,100.00
2022-09-17T23:45:28.326Z,100.00
2022-09-17T23:47:55.231Z,100.00
2022-09-17T23:50:22.440Z,100.00
2022-09-17T23:52:49.379Z,100.00
2022-09-17T23:55:16.253Z,100.00
2022-09-17T23:57:43.451Z,100.00
